sensor_id;sensor_type;location;lat;lon;timestamp;pressure;altitude;pressure_sealevel;temperature
16956;BMP180;8594;52.052;8.354;2022-09-27T00:01:16;98364.00;;;14.40
16956;BMP180;8594;52.052;8.354;2022-09-27T00:03:43;98370.00;;;14.10
16956;BMP180;8594;52.052;8.354;2022-09-27T00:06:14;98371.00;;;14.30
16956;BMP180;8594;52.052;8.354;2022-09-27T00:08:42;98368.00;;;14.00
16956;BMP180;8594;52.052;8.354;2022-09-27T00:11:17;98365.00;;;13.60
16956;BMP180;8594;52.052;8.354;2022-09-27T00:13:45;98370.00;;;14.10
16956;BMP180;8594;52.052;8.354;2022-09-27T00:16:13;98380.00;;;14.30
16956;BMP180;8594;52.052;8.354;2022-09-27T00:18:41;98379.00;;;14.40
16956;BMP180;8594;52.052;8.354;2022-09-27T00:21:10;98381.00;;;14.20
16956;BMP180;8594;52.052;8.354;2022-09-27T00:23:39;98377.00;;;14.10
16956;BMP180;8594;52.052;8.354;2022-09-27T00:26:07;98379.00;;;14.00
16956;BMP180;8594;52.052;8.354;2022-09-27T00:28:36;98386.00;;;14.20
16956;BMP180;8594;52.052;8.354;2022-09-27T00:31:03;98377.00;;;14.30
16956;BMP180;8594;52.052;8.354;2022-09-27T00:33:31;98386.00;;;14.30
16956;BMP180;8594;52.052;8.354;2022-09-27T00:36:03;98381.00;;;14.40
16956;BMP180;8594;52.052;8.354;2022-09-27T00:38:30;98374.00;;;14.30
16956;BMP180;8594;52.052;8.354;2022-09-27T00:40:57;98379.00;;;14.60
16956;BMP180;8594;52.052;8.354;2022-09-27T00:43:24;98378.00;;;14.60
16956;BMP180;8594;52.052;8.354;2022-09-27T00:45:54;98378.00;;;14.60
16956;BMP180;8594;52.052;8.354;2022-09-27T00:48:27;98372.00;;;14.60
16956;BMP180;8594;52.052;8.354;2022-09-27T00:51:00;98364.00;;;14.60
16956;BMP180;8594;52.052;8.354;2022-09-27T00:53:34;98373.00;;;14.50
16956;BMP180;8594;52.052;8.354;2022-09-27T00:56:08;98366.00;;;14.80
16956;BMP180;8594;52.052;8.354;2022-09-27T00:58:41;98368.00;;;14.50
16956;BMP180;8594;52.052;8.354;2022-09-27T01:01:10;98364.00;;;13.90
16956;BMP180;8594;52.052;8.354;2022-09-27T01:03:45;98375.00;;;14.30
16956;BMP180;8594;52.052;8.354;2022-09-27T01:06:18;98371.00;;;14.40
16956;BMP180;8594;52.052;8.354;2022-09-27T01:08:46;98375.00;;;14.60
16956;BMP180;8594;52.052;8.354;2022-09-27T01:11:21;98371.00;;;14.50
16956;BMP180;8594;52.052;8.354;2022-09-27T01:14:09;98376.00;;;14.50
16956;BMP180;8594;52.052;8.354;2022-09-27T01:16:46;98382.00;;;14.50
16956;BMP180;8594;52.052;8.354;2022-09-27T01:19:38;98381.00;;;14.40
16956;BMP180;8594;52.052;8.354;2022-09-27T01:22:17;98377.00;;;14.60
16956;BMP180;8594;52.052;8.354;2022-09-27T01:25:12;98382.00;;;14.40
16956;BMP180;8594;52.052;8.354;2022-09-27T01:28:13;98380.00;;;14.40
16956;BMP180;8594;52.052;8.354;2022-09-27T01:30:49;98381.00;;;14.50
16956;BMP180;8594;52.052;8.354;2022-09-27T01:33:43;98378.00;;;14.40
16956;BMP180;8594;52.052;8.354;2022-09-27T01:36:19;98388.00;;;14.50
16956;BMP180;8594;52.052;8.354;2022-09-27T01:39:17;98389.00;;;14.40
16956;BMP180;8594;52.052;8.354;2022-09-27T01:41:56;98380.00;;;14.50
16956;BMP180;8594;52.052;8.354;2022-09-27T01:44:33;98392.00;;;14.30
16956;BMP180;8594;52.052;8.354;2022-09-27T01:47:08;98393.00;;;14.30
16956;BMP180;8594;52.052;8.354;2022-09-27T01:49:44;98388.00;;;14.00
16956;BMP180;8594;52.052;8.354;2022-09-27T01:52:17;98390.00;;;14.30
16956;BMP180;8594;52.052;8.354;2022-09-27T01:54:51;98395.00;;;14.10
16956;BMP180;8594;52.052;8.354;2022-09-27T01:57:25;98386.00;;;13.90
16956;BMP180;8594;52.052;8.354;2022-09-27T01:59:58;98391.00;;;14.20
16956;BMP180;8594;52.052;8.354;2022-09-27T02:02:32;98396.00;;;14.20
16956;BMP180;8594;52.052;8.354;2022-09-27T02:05:04;98390.00;;;14.10
16956;BMP180;8594;52.052;8.354;2022-09-27T02:07:39;98400.00;;;14.40
16956;BMP180;8594;52.052;8.354;2022-09-27T02:10:12;98397.00;;;14.10
16956;BMP180;8594;52.052;8.354;2022-09-27T02:12:50;98397.00;;;14.20
16956;BMP180;8594;52.052;8.354;2022-09-27T02:15:18;98392.00;;;14.00
16956;BMP180;8594;52.052;8.354;2022-09-27T02:17:57;98396.00;;;13.90
16956;BMP180;8594;52.052;8.354;2022-09-27T02:20:30;98395.00;;;13.90
16956;BMP180;8594;52.052;8.354;2022-09-27T02:23:09;98395.00;;;13.90
16956;BMP180;8594;52.052;8.354;2022-09-27T02:25:43;98396.00;;;13.70
16956;BMP180;8594;52.052;8.354;2022-09-27T02:28:22;98395.00;;;14.00
16956;BMP180;8594;52.052;8.354;2022-09-27T02:30:51;98403.00;;;13.80
16956;BMP180;8594;52.052;8.354;2022-09-27T02:33:23;98401.00;;;14.00
16956;BMP180;8594;52.052;8.354;2022-09-27T02:35:51;98401.00;;;13.80
16956;BMP180;8594;52.052;8.354;2022-09-27T02:38:18;98412.00;;;13.80
16956;BMP180;8594;52.052;8.354;2022-09-27T02:40:46;98407.00;;;13.90
16956;BMP180;8594;52.052;8.354;2022-09-27T02:43:16;98407.00;;;13.50
16956;BMP180;8594;52.052;8.354;2022-09-27T02:46:09;98408.00;;;13.80
16956;BMP180;8594;52.052;8.354;2022-09-27T02:48:51;98411.00;;;13.90
16956;BMP180;8594;52.052;8.354;2022-09-27T02:51:40;98419.00;;;14.10
16956;BMP180;8594;52.052;8.354;2022-09-27T02:54:20;98410.00;;;14.20
16956;BMP180;8594;52.052;8.354;2022-09-27T02:57:02;98413.00;;;14.00
16956;BMP180;8594;52.052;8.354;2022-09-27T02:59:47;98412.00;;;14.00
16956;BMP180;8594;52.052;8.354;2022-09-27T03:02:27;98405.00;;;13.80
16956;BMP180;8594;52.052;8.354;2022-09-27T03:05:01;98410.00;;;13.80
16956;BMP180;8594;52.052;8.354;2022-09-27T03:07:29;98412.00;;;13.60
16956;BMP180;8594;52.052;8.354;2022-09-27T03:09:57;98403.00;;;13.60
16956;BMP180;8594;52.052;8.354;2022-09-27T03:12:24;98410.00;;;13.70
16956;BMP180;8594;52.052;8.354;2022-09-27T03:14:52;98416.00;;;13.50
16956;BMP180;8594;52.052;8.354;2022-09-27T03:17:19;98415.00;;;13.70
16956;BMP180;8594;52.052;8.354;2022-09-27T03:19:46;98420.00;;;13.40
16956;BMP180;8594;52.052;8.354;2022-09-27T03:22:15;98421.00;;;13.50
16956;BMP180;8594;52.052;8.354;2022-09-27T03:24:42;98424.00;;;13.70
16956;BMP180;8594;52.052;8.354;2022-09-27T03:27:10;98415.00;;;13.40
16956;BMP180;8594;52.052;8.354;2022-09-27T03:29:37;98420.00;;;13.80
16956;BMP180;8594;52.052;8.354;2022-09-27T03:32:04;98424.00;;;13.60
16956;BMP180;8594;52.052;8.354;2022-09-27T03:34:31;98434.00;;;13.70
16956;BMP180;8594;52.052;8.354;2022-09-27T03:36:57;98431.00;;;13.80
16956;BMP180;8594;52.052;8.354;2022-09-27T03:39:25;98429.00;;;14.00
16956;BMP180;8594;52.052;8.354;2022-09-27T03:41:52;98437.00;;;13.70
16956;BMP180;8594;52.052;8.354;2022-09-27T03:44:19;98427.00;;;13.60
16956;BMP180;8594;52.052;8.354;2022-09-27T03:46:46;98434.00;;;13.10
16956;BMP180;8594;52.052;8.354;2022-09-27T03:49:12;98438.00;;;13.70
16956;BMP180;8594;52.052;8.354;2022-09-27T03:51:39;98432.00;;;13.60
16956;BMP180;8594;52.052;8.354;2022-09-27T03:54:07;98435.00;;;13.70
16956;BMP180;8594;52.052;8.354;2022-09-27T03:56:35;98435.00;;;13.30
16956;BMP180;8594;52.052;8.354;2022-09-27T03:59:02;98440.00;;;13.30
16956;BMP180;8594;52.052;8.354;2022-09-27T04:01:29;98436.00;;;13.40
16956;BMP180;8594;52.052;8.354;2022-09-27T04:03:55;98441.00;;;13.60
16956;BMP180;8594;52.052;8.354;2022-09-27T04:06:22;98440.00;;;13.50
16956;BMP180;8594;52.052;8.354;2022-09-27T04:08:52;98446.00;;;13.70
16956;BMP180;8594;52.052;8.354;2022-09-27T04:11:19;98440.00;;;13.60
16956;BMP180;8594;52.052;8.354;2022-09-27T04:13:49;98430.00;;;13.60
16956;BMP180;8594;52.052;8.354;2022-09-27T04:16:16;98441.00;;;13.50
16956;BMP180;8594;52.052;8.354;2022-09-27T04:18:44;98446.00;;;13.30
16956;BMP180;8594;52.052;8.354;2022-09-27T04:21:11;98440.00;;;13.40
16956;BMP180;8594;52.052;8.354;2022-09-27T04:23:38;98436.00;;;13.10
16956;BMP180;8594;52.052;8.354;2022-09-27T04:26:06;98446.00;;;13.20
16956;BMP180;8594;52.052;8.354;2022-09-27T04:28:32;98439.00;;;12.70
16956;BMP180;8594;52.052;8.354;2022-09-27T04:31:00;98446.00;;;12.90
16956;BMP180;8594;52.052;8.354;2022-09-27T04:33:27;98453.00;;;12.90
16956;BMP180;8594;52.052;8.354;2022-09-27T04:35:54;98450.00;;;12.90
16956;BMP180;8594;52.052;8.354;2022-09-27T04:38:38;98452.00;;;13.10
16956;BMP180;8594;52.052;8.354;2022-09-27T04:41:06;98451.00;;;13.00
16956;BMP180;8594;52.052;8.354;2022-09-27T04:43:33;98465.00;;;12.90
16956;BMP180;8594;52.052;8.354;2022-09-27T04:46:01;98464.00;;;13.00
16956;BMP180;8594;52.052;8.354;2022-09-27T04:48:27;98458.00;;;13.00
16956;BMP180;8594;52.052;8.354;2022-09-27T04:50:58;98455.00;;;12.90
16956;BMP180;8594;52.052;8.354;2022-09-27T04:53:27;98455.00;;;13.00
16956;BMP180;8594;52.052;8.354;2022-09-27T04:55:55;98462.00;;;13.00
16956;BMP180;8594;52.052;8.354;2022-09-27T04:58:22;98471.00;;;12.60
16956;BMP180;8594;52.052;8.354;2022-09-27T05:00:50;98464.00;;;12.80
16956;BMP180;8594;52.052;8.354;2022-09-27T05:03:20;98468.00;;;13.00
16956;BMP180;8594;52.052;8.354;2022-09-27T05:05:47;98471.00;;;12.70
16956;BMP180;8594;52.052;8.354;2022-09-27T05:08:14;98473.00;;;12.80
16956;BMP180;8594;52.052;8.354;2022-09-27T05:10:41;98479.00;;;12.60
16956;BMP180;8594;52.052;8.354;2022-09-27T05:13:07;98485.00;;;12.70
16956;BMP180;8594;52.052;8.354;2022-09-27T05:15:34;98482.00;;;12.90
16956;BMP180;8594;52.052;8.354;2022-09-27T05:18:01;98478.00;;;12.80
16956;BMP180;8594;52.052;8.354;2022-09-27T05:20:30;98484.00;;;12.80
16956;BMP180;8594;52.052;8.354;2022-09-27T05:22:57;98494.00;;;12.40
16956;BMP180;8594;52.052;8.354;2022-09-27T05:25:24;98495.00;;;12.70
16956;BMP180;8594;52.052;8.354;2022-09-27T05:27:51;98498.00;;;13.00
16956;BMP180;8594;52.052;8.354;2022-09-27T05:30:18;98508.00;;;12.80
16956;BMP180;8594;52.052;8.354;2022-09-27T05:32:45;98507.00;;;12.80
16956;BMP180;8594;52.052;8.354;2022-09-27T05:35:14;98507.00;;;12.80
16956;BMP180;8594;52.052;8.354;2022-09-27T05:37:43;98512.00;;;12.70
16956;BMP180;8594;52.052;8.354;2022-09-27T05:40:10;98510.00;;;12.60
16956;BMP180;8594;52.052;8.354;2022-09-27T05:42:37;98519.00;;;12.40
16956;BMP180;8594;52.052;8.354;2022-09-27T05:45:05;98521.00;;;12.50
16956;BMP180;8594;52.052;8.354;2022-09-27T05:47:32;98523.00;;;12.50
16956;BMP180;8594;52.052;8.354;2022-09-27T05:49:59;98518.00;;;12.40
16956;BMP180;8594;52.052;8.354;2022-09-27T05:52:26;98529.00;;;12.50
16956;BMP180;8594;52.052;8.354;2022-09-27T05:54:54;98525.00;;;12.80
16956;BMP180;8594;52.052;8.354;2022-09-27T05:57:22;98530.00;;;12.60
16956;BMP180;8594;52.052;8.354;2022-09-27T05:59:49;98530.00;;;12.60
16956;BMP180;8594;52.052;8.354;2022-09-27T06:02:16;98542.00;;;12.80
16956;BMP180;8594;52.052;8.354;2022-09-27T06:04:43;98535.00;;;12.80
16956;BMP180;8594;52.052;8.354;2022-09-27T06:07:10;98528.00;;;12.90
16956;BMP180;8594;52.052;8.354;2022-09-27T06:09:37;98536.00;;;12.80
16956;BMP180;8594;52.052;8.354;2022-09-27T06:12:05;98540.00;;;12.80
16956;BMP180;8594;52.052;8.354;2022-09-27T06:14:35;98539.00;;;12.70
16956;BMP180;8594;52.052;8.354;2022-09-27T06:17:02;98542.00;;;12.90
16956;BMP180;8594;52.052;8.354;2022-09-27T06:19:29;98545.00;;;13.00
16956;BMP180;8594;52.052;8.354;2022-09-27T06:21:56;98551.00;;;12.60
16956;BMP180;8594;52.052;8.354;2022-09-27T06:24:23;98548.00;;;12.60
16956;BMP180;8594;52.052;8.354;2022-09-27T06:26:49;98552.00;;;12.70
16956;BMP180;8594;52.052;8.354;2022-09-27T06:29:17;98564.00;;;12.70
16956;BMP180;8594;52.052;8.354;2022-09-27T06:31:44;98563.00;;;12.20
16956;BMP180;8594;52.052;8.354;2022-09-27T06:34:11;98568.00;;;12.60
16956;BMP180;8594;52.052;8.354;2022-09-27T06:36:38;98561.00;;;12.60
16956;BMP180;8594;52.052;8.354;2022-09-27T06:39:04;98570.00;;;12.80
16956;BMP180;8594;52.052;8.354;2022-09-27T06:41:31;98572.00;;;12.70
16956;BMP180;8594;52.052;8.354;2022-09-27T06:44:01;98570.00;;;12.70
16956;BMP180;8594;52.052;8.354;2022-09-27T06:46:29;98582.00;;;12.80
16956;BMP180;8594;52.052;8.354;2022-09-27T06:48:56;98580.00;;;12.80
16956;BMP180;8594;52.052;8.354;2022-09-27T06:51:23;98579.00;;;12.80
16956;BMP180;8594;52.052;8.354;2022-09-27T06:53:49;98590.00;;;12.70
16956;BMP180;8594;52.052;8.354;2022-09-27T06:56:16;98591.00;;;13.00
16956;BMP180;8594;52.052;8.354;2022-09-27T06:58:43;98594.00;;;12.90
16956;BMP180;8594;52.052;8.354;2022-09-27T07:01:29;98597.00;;;12.70
16956;BMP180;8594;52.052;8.354;2022-09-27T07:03:56;98597.00;;;13.10
16956;BMP180;8594;52.052;8.354;2022-09-27T07:06:24;98594.00;;;12.80
16956;BMP180;8594;52.052;8.354;2022-09-27T07:08:52;98599.00;;;13.00
16956;BMP180;8594;52.052;8.354;2022-09-27T07:11:21;98600.00;;;13.00
16956;BMP180;8594;52.052;8.354;2022-09-27T07:13:50;98596.00;;;13.10
16956;BMP180;8594;52.052;8.354;2022-09-27T07:16:17;98594.00;;;13.00
16956;BMP180;8594;52.052;8.354;2022-09-27T07:18:47;98595.00;;;12.80
16956;BMP180;8594;52.052;8.354;2022-09-27T07:21:14;98603.00;;;12.70
16956;BMP180;8594;52.052;8.354;2022-09-27T07:23:41;98604.00;;;12.90
16956;BMP180;8594;52.052;8.354;2022-09-27T07:26:09;98612.00;;;13.40
16956;BMP180;8594;52.052;8.354;2022-09-27T07:28:37;98621.00;;;13.40
16956;BMP180;8594;52.052;8.354;2022-09-27T07:31:05;98615.00;;;13.10
16956;BMP180;8594;52.052;8.354;2022-09-27T07:33:32;98615.00;;;13.00
16956;BMP180;8594;52.052;8.354;2022-09-27T07:36:05;98619.00;;;13.20
16956;BMP180;8594;52.052;8.354;2022-09-27T07:38:32;98627.00;;;13.20
16956;BMP180;8594;52.052;8.354;2022-09-27T07:41:05;98625.00;;;13.10
16956;BMP180;8594;52.052;8.354;2022-09-27T07:43:32;98635.00;;;13.40
16956;BMP180;8594;52.052;8.354;2022-09-27T07:45:59;98631.00;;;13.40
16956;BMP180;8594;52.052;8.354;2022-09-27T07:48:26;98628.00;;;13.20
16956;BMP180;8594;52.052;8.354;2022-09-27T07:50:53;98634.00;;;13.40
16956;BMP180;8594;52.052;8.354;2022-09-27T07:53:21;98637.00;;;13.50
16956;BMP180;8594;52.052;8.354;2022-09-27T07:55:50;98646.00;;;14.00
16956;BMP180;8594;52.052;8.354;2022-09-27T07:58:19;98643.00;;;14.00
16956;BMP180;8594;52.052;8.354;2022-09-27T08:00:46;98655.00;;;14.00
16956;BMP180;8594;52.052;8.354;2022-09-27T08:03:15;98648.00;;;13.90
16956;BMP180;8594;52.052;8.354;2022-09-27T08:05:44;98646.00;;;14.00
16956;BMP180;8594;52.052;8.354;2022-09-27T08:08:12;98655.00;;;13.70
16956;BMP180;8594;52.052;8.354;2022-09-27T08:10:40;98650.00;;;13.80
16956;BMP180;8594;52.052;8.354;2022-09-27T08:13:09;98657.00;;;14.10
16956;BMP180;8594;52.052;8.354;2022-09-27T08:15:37;98656.00;;;13.80
16956;BMP180;8594;52.052;8.354;2022-09-27T08:18:06;98653.00;;;14.00
16956;BMP180;8594;52.052;8.354;2022-09-27T08:20:34;98666.00;;;14.00
16956;BMP180;8594;52.052;8.354;2022-09-27T08:23:01;98669.00;;;14.20
16956;BMP180;8594;52.052;8.354;2022-09-27T08:25:29;98667.00;;;14.00
16956;BMP180;8594;52.052;8.354;2022-09-27T08:27:58;98668.00;;;14.00
16956;BMP180;8594;52.052;8.354;2022-09-27T08:30:27;98663.00;;;13.90
16956;BMP180;8594;52.052;8.354;2022-09-27T08:32:56;98669.00;;;14.20
16956;BMP180;8594;52.052;8.354;2022-09-27T08:35:23;98675.00;;;14.00
16956;BMP180;8594;52.052;8.354;2022-09-27T08:37:55;98674.00;;;14.00
16956;BMP180;8594;52.052;8.354;2022-09-27T08:40:45;98675.00;;;14.00
16956;BMP180;8594;52.052;8.354;2022-09-27T08:43:29;98676.00;;;14.60
16956;BMP180;8594;52.052;8.354;2022-09-27T08:46:12;98676.00;;;14.60
16956;BMP180;8594;52.052;8.354;2022-09-27T08:48:45;98667.00;;;14.50
16956;BMP180;8594;52.052;8.354;2022-09-27T08:51:15;98682.00;;;14.80
16956;BMP180;8594;52.052;8.354;2022-09-27T08:53:48;98678.00;;;15.00
16956;BMP180;8594;52.052;8.354;2022-09-27T08:56:18;98681.00;;;14.60
16956;BMP180;8594;52.052;8.354;2022-09-27T08:58:52;98686.00;;;15.10
16956;BMP180;8594;52.052;8.354;2022-09-27T09:01:25;98682.00;;;14.90
16956;BMP180;8594;52.052;8.354;2022-09-27T09:03:56;98675.00;;;15.20
16956;BMP180;8594;52.052;8.354;2022-09-27T09:06:27;98683.00;;;14.80
16956;BMP180;8594;52.052;8.354;2022-09-27T09:09:08;98680.00;;;15.00
16956;BMP180;8594;52.052;8.354;2022-09-27T09:11:56;98675.00;;;15.60
16956;BMP180;8594;52.052;8.354;2022-09-27T09:15:15;98685.00;;;16.40
16956;BMP180;8594;52.052;8.354;2022-09-27T09:18:05;98682.00;;;16.50
16956;BMP180;8594;52.052;8.354;2022-09-27T09:20:53;98686.00;;;17.00
16956;BMP180;8594;52.052;8.354;2022-09-27T09:23:50;98689.00;;;17.10
16956;BMP180;8594;52.052;8.354;2022-09-27T09:26:32;98687.00;;;17.30
16956;BMP180;8594;52.052;8.354;2022-09-27T09:29:15;98687.00;;;17.10
16956;BMP180;8594;52.052;8.354;2022-09-27T09:31:57;98679.00;;;17.30
16956;BMP180;8594;52.052;8.354;2022-09-27T09:34:34;98684.00;;;16.40
16956;BMP180;8594;52.052;8.354;2022-09-27T09:37:11;98685.00;;;16.00
16956;BMP180;8594;52.052;8.354;2022-09-27T09:39:44;98684.00;;;16.20
16956;BMP180;8594;52.052;8.354;2022-09-27T09:42:21;98687.00;;;16.30
16956;BMP180;8594;52.052;8.354;2022-09-27T09:44:58;98688.00;;;15.90
16956;BMP180;8594;52.052;8.354;2022-09-27T09:47:35;98687.00;;;15.70
16956;BMP180;8594;52.052;8.354;2022-09-27T09:50:16;98688.00;;;15.80
16956;BMP180;8594;52.052;8.354;2022-09-27T09:52:49;98683.00;;;16.60
16956;BMP180;8594;52.052;8.354;2022-09-27T09:55:21;98677.00;;;16.40
16956;BMP180;8594;52.052;8.354;2022-09-27T09:58:18;98679.00;;;16.40
16956;BMP180;8594;52.052;8.354;2022-09-27T10:00:47;98692.00;;;16.50
16956;BMP180;8594;52.052;8.354;2022-09-27T10:03:17;98686.00;;;16.00
16956;BMP180;8594;52.052;8.354;2022-09-27T10:05:45;98691.00;;;15.70
16956;BMP180;8594;52.052;8.354;2022-09-27T10:08:18;98690.00;;;14.80
16956;BMP180;8594;52.052;8.354;2022-09-27T10:10:46;98692.00;;;14.80
16956;BMP180;8594;52.052;8.354;2022-09-27T10:13:17;98698.00;;;15.20
16956;BMP180;8594;52.052;8.354;2022-09-27T10:15:53;98693.00;;;15.00
16956;BMP180;8594;52.052;8.354;2022-09-27T10:18:23;98695.00;;;15.10
16956;BMP180;8594;52.052;8.354;2022-09-27T10:20:56;98696.00;;;14.70
16956;BMP180;8594;52.052;8.354;2022-09-27T10:23:25;98699.00;;;15.00
16956;BMP180;8594;52.052;8.354;2022-09-27T10:25:55;98690.00;;;14.80
16956;BMP180;8594;52.052;8.354;2022-09-27T10:28:30;98695.00;;;14.80
16956;BMP180;8594;52.052;8.354;2022-09-27T10:31:01;98696.00;;;14.70
16956;BMP180;8594;52.052;8.354;2022-09-27T10:33:31;98697.00;;;15.10
16956;BMP180;8594;52.052;8.354;2022-09-27T10:35:59;98696.00;;;15.20
16956;BMP180;8594;52.052;8.354;2022-09-27T10:38:30;98686.00;;;15.20
16956;BMP180;8594;52.052;8.354;2022-09-27T10:41:16;98685.00;;;15.70
16956;BMP180;8594;52.052;8.354;2022-09-27T10:43:47;98681.00;;;16.40
16956;BMP180;8594;52.052;8.354;2022-09-27T10:46:26;98676.00;;;16.60
16956;BMP180;8594;52.052;8.354;2022-09-27T10:49:17;98687.00;;;16.50
16956;BMP180;8594;52.052;8.354;2022-09-27T10:51:48;98685.00;;;16.50
16956;BMP180;8594;52.052;8.354;2022-09-27T10:54:20;98694.00;;;16.20
16956;BMP180;8594;52.052;8.354;2022-09-27T10:56:57;98691.00;;;15.50
16956;BMP180;8594;52.052;8.354;2022-09-27T10:59:26;98692.00;;;15.70
16956;BMP180;8594;52.052;8.354;2022-09-27T11:01:55;98685.00;;;15.50
16956;BMP180;8594;52.052;8.354;2022-09-27T11:04:29;98677.00;;;15.60
16956;BMP180;8594;52.052;8.354;2022-09-27T11:07:11;98686.00;;;16.50
16956;BMP180;8594;52.052;8.354;2022-09-27T11:09:50;98682.00;;;16.40
16956;BMP180;8594;52.052;8.354;2022-09-27T11:12:17;98688.00;;;16.10
16956;BMP180;8594;52.052;8.354;2022-09-27T11:14:55;98681.00;;;15.50
16956;BMP180;8594;52.052;8.354;2022-09-27T11:17:33;98691.00;;;15.30
16956;BMP180;8594;52.052;8.354;2022-09-27T11:20:28;98684.00;;;16.10
16956;BMP180;8594;52.052;8.354;2022-09-27T11:23:30;98687.00;;;17.20
16956;BMP180;8594;52.052;8.354;2022-09-27T11:26:25;98697.00;;;17.20
16956;BMP180;8594;52.052;8.354;2022-09-27T11:29:12;98675.00;;;17.10
16956;BMP180;8594;52.052;8.354;2022-09-27T11:32:02;98696.00;;;17.70
16956;BMP180;8594;52.052;8.354;2022-09-27T11:35:04;98696.00;;;16.70
16956;BMP180;8594;52.052;8.354;2022-09-27T11:37:44;98701.00;;;16.50
16956;BMP180;8594;52.052;8.354;2022-09-27T11:40:28;98700.00;;;16.10
16956;BMP180;8594;52.052;8.354;2022-09-27T11:43:27;98693.00;;;15.80
16956;BMP180;8594;52.052;8.354;2022-09-27T11:46:09;98693.00;;;17.20
16956;BMP180;8594;52.052;8.354;2022-09-27T11:48:59;98687.00;;;17.60
16956;BMP180;8594;52.052;8.354;2022-09-27T11:51:43;98680.00;;;17.10
16956;BMP180;8594;52.052;8.354;2022-09-27T11:54:44;98685.00;;;16.90
16956;BMP180;8594;52.052;8.354;2022-09-27T11:57:20;98686.00;;;16.70
16956;BMP180;8594;52.052;8.354;2022-09-27T12:00:13;98688.00;;;16.20
16956;BMP180;8594;52.052;8.354;2022-09-27T12:03:27;98694.00;;;16.40
16956;BMP180;8594;52.052;8.354;2022-09-27T12:06:06;98683.00;;;16.30
16956;BMP180;8594;52.052;8.354;2022-09-27T12:08:53;98692.00;;;17.30
16956;BMP180;8594;52.052;8.354;2022-09-27T12:11:28;98696.00;;;17.10
16956;BMP180;8594;52.052;8.354;2022-09-27T12:14:01;98688.00;;;17.70
16956;BMP180;8594;52.052;8.354;2022-09-27T12:16:31;98688.00;;;17.60
16956;BMP180;8594;52.052;8.354;2022-09-27T12:19:00;98681.00;;;17.40
16956;BMP180;8594;52.052;8.354;2022-09-27T12:21:30;98689.00;;;16.80
16956;BMP180;8594;52.052;8.354;2022-09-27T12:24:00;98689.00;;;17.20
16956;BMP180;8594;52.052;8.354;2022-09-27T12:26:35;98688.00;;;17.50
16956;BMP180;8594;52.052;8.354;2022-09-27T12:29:12;98679.00;;;17.40
16956;BMP180;8594;52.052;8.354;2022-09-27T12:31:44;98691.00;;;17.40
16956;BMP180;8594;52.052;8.354;2022-09-27T12:34:17;98700.00;;;17.00
16956;BMP180;8594;52.052;8.354;2022-09-27T12:36:50;98699.00;;;16.90
16956;BMP180;8594;52.052;8.354;2022-09-27T12:39:22;98700.00;;;16.70
16956;BMP180;8594;52.052;8.354;2022-09-27T12:41:58;98698.00;;;16.80
16956;BMP180;8594;52.052;8.354;2022-09-27T12:44:30;98704.00;;;16.40
16956;BMP180;8594;52.052;8.354;2022-09-27T12:47:07;98693.00;;;16.40
16956;BMP180;8594;52.052;8.354;2022-09-27T12:49:47;98692.00;;;16.50
16956;BMP180;8594;52.052;8.354;2022-09-27T12:52:21;98699.00;;;16.90
16956;BMP180;8594;52.052;8.354;2022-09-27T12:58:30;98703.00;;;16.90
16956;BMP180;8594;52.052;8.354;2022-09-27T13:01:10;98698.00;;;16.70
16956;BMP180;8594;52.052;8.354;2022-09-27T13:04:05;98698.00;;;17.10
16956;BMP180;8594;52.052;8.354;2022-09-27T13:06:56;98702.00;;;16.70
16956;BMP180;8594;52.052;8.354;2022-09-27T13:09:54;98709.00;;;16.50
16956;BMP180;8594;52.052;8.354;2022-09-27T13:12:27;98703.00;;;16.30
16956;BMP180;8594;52.052;8.354;2022-09-27T13:15:02;98701.00;;;16.00
16956;BMP180;8594;52.052;8.354;2022-09-27T13:17:50;98706.00;;;16.00
16956;BMP180;8594;52.052;8.354;2022-09-27T13:20:42;98710.00;;;15.60
16956;BMP180;8594;52.052;8.354;2022-09-27T13:23:56;98720.00;;;15.40
16956;BMP180;8594;52.052;8.354;2022-09-27T13:26:49;98721.00;;;14.20
16956;BMP180;8594;52.052;8.354;2022-09-27T13:29:31;98714.00;;;14.30
16956;BMP180;8594;52.052;8.354;2022-09-27T13:32:24;98700.00;;;15.00
16956;BMP180;8594;52.052;8.354;2022-09-27T13:34:54;98692.00;;;14.70
16956;BMP180;8594;52.052;8.354;2022-09-27T13:37:49;98697.00;;;14.70
16956;BMP180;8594;52.052;8.354;2022-09-27T13:40:28;98706.00;;;14.50
16956;BMP180;8594;52.052;8.354;2022-09-27T13:43:38;98706.00;;;15.10
16956;BMP180;8594;52.052;8.354;2022-09-27T13:46:17;98700.00;;;15.00
16956;BMP180;8594;52.052;8.354;2022-09-27T13:48:52;98701.00;;;15.40
16956;BMP180;8594;52.052;8.354;2022-09-27T13:51:35;98709.00;;;15.30
16956;BMP180;8594;52.052;8.354;2022-09-27T13:54:38;98698.00;;;15.60
16956;BMP180;8594;52.052;8.354;2022-09-27T13:57:40;98696.00;;;15.50
16956;BMP180;8594;52.052;8.354;2022-09-27T14:00:13;98703.00;;;15.40
16956;BMP180;8594;52.052;8.354;2022-09-27T14:02:54;98699.00;;;15.40
16956;BMP180;8594;52.052;8.354;2022-09-27T14:05:29;98695.00;;;15.80
16956;BMP180;8594;52.052;8.354;2022-09-27T14:08:00;98688.00;;;15.70
16956;BMP180;8594;52.052;8.354;2022-09-27T14:10:30;98695.00;;;15.20
16956;BMP180;8594;52.052;8.354;2022-09-27T14:13:00;98693.00;;;15.70
16956;BMP180;8594;52.052;8.354;2022-09-27T14:15:30;98697.00;;;15.90
16956;BMP180;8594;52.052;8.354;2022-09-27T14:17:58;98697.00;;;16.00
16956;BMP180;8594;52.052;8.354;2022-09-27T14:20:35;98693.00;;;15.90
16956;BMP180;8594;52.052;8.354;2022-09-27T14:23:04;98696.00;;;16.40
16956;BMP180;8594;52.052;8.354;2022-09-27T14:25:32;98695.00;;;16.30
16956;BMP180;8594;52.052;8.354;2022-09-27T14:27:59;98692.00;;;16.30
16956;BMP180;8594;52.052;8.354;2022-09-27T14:30:28;98705.00;;;16.40
16956;BMP180;8594;52.052;8.354;2022-09-27T14:32:56;98701.00;;;16.00
16956;BMP180;8594;52.052;8.354;2022-09-27T14:35:30;98710.00;;;14.90
16956;BMP180;8594;52.052;8.354;2022-09-27T14:38:18;98719.00;;;15.20
16956;BMP180;8594;52.052;8.354;2022-09-27T14:40:58;98722.00;;;15.40
16956;BMP180;8594;52.052;8.354;2022-09-27T14:43:27;98722.00;;;15.10
16956;BMP180;8594;52.052;8.354;2022-09-27T14:45:59;98717.00;;;14.60
16956;BMP180;8594;52.052;8.354;2022-09-27T14:48:29;98724.00;;;14.70
16956;BMP180;8594;52.052;8.354;2022-09-27T14:50:59;98732.00;;;14.70
16956;BMP180;8594;52.052;8.354;2022-09-27T14:53:30;98722.00;;;13.90
16956;BMP180;8594;52.052;8.354;2022-09-27T14:56:00;98737.00;;;14.00
16956;BMP180;8594;52.052;8.354;2022-09-27T14:58:29;98739.00;;;14.30
16956;BMP180;8594;52.052;8.354;2022-09-27T15:00:56;98738.00;;;14.40
16956;BMP180;8594;52.052;8.354;2022-09-27T15:03:29;98737.00;;;14.20